Terminal Aerodrome Forecast
Issued by NWS

Home | Current Version | Previous Version | Text Only | Print | Product List | Glossary On
Versions: 1 2 3 4 5 6 7 8 9 10 11 12 13 14 15 16 17 18 19 20 21 22 23 24 25 26
000
FTUS43 KSGF 180500
TAFJLN
TAF
KJLN 180520Z 1806/1906 VRB05KT P6SM VCTS SCT070CB BKN150 OVC250
      TEMPO 1808/1812 2SM TSRA BR SCT010 OVC025CB
     FM181200 VRB05KT 6SM -TSRA BR SCT007 OVC015CB
      TEMPO 1812/1815 2SM TSRA BR OVC007CB
     FM181500 10008KT P6SM SCT015 OVC050
     FM181800 10008KT P6SM SCT030 BKN250=

USA.gov is the U.S. government's official web portal to all federal, state and local government web resources and services.